Time;durP1;ratioP1;P1;durP2;ratioP2;P2;SDS_P1;SDS_P2;PMS_P1;PMS_P2;Temp;Humidity;BMP_temperature;BMP_pressure;BME280_temperature;BME280_humidity;BME280_pressure;Samples;Min_cycle;Max_cycle;Signal;HPM_P1;HPM_P2
2023/12/12 00:01:52;;;;;;;11.43;7.57;;;11.70;71.50;;;;;;2518708;54;21283;-68
2023/12/12 00:04:20;;;;;;;10.13;6.85;;;11.70;71.60;;;;;;2536066;54;21019;-68
2023/12/12 00:06:48;;;;;;;7.62;5.65;;;11.60;71.50;;;;;;2536487;54;21316;-68
2023/12/12 00:09:15;;;;;;;6.65;4.75;;;11.60;71.60;;;;;;2299763;55;21011;-68
2023/12/12 00:11:42;;;;;;;5.62;4.20;;;11.60;71.60;;;;;;2299316;55;20952;-67
2023/12/12 00:14:08;;;;;;;4.78;3.28;;;11.50;71.50;;;;;;2536494;54;21445;-68
2023/12/12 00:16:34;;;;;;;4.80;2.83;;;11.50;71.50;;;;;;2535539;54;21011;-68
2023/12/12 00:19:01;;;;;;;3.90;2.28;;;11.50;71.60;;;;;;2536020;54;20963;-68
2023/12/12 00:21:27;;;;;;;3.62;1.92;;;11.40;71.60;;;;;;2299140;55;21188;-68
2023/12/12 00:23:55;;;;;;;2.85;1.50;;;11.40;71.70;;;;;;2537331;54;21063;-68
2023/12/12 00:26:23;;;;;;;3.95;1.33;;;11.40;71.80;;;;;;2298888;55;20967;-68
2023/12/12 00:28:49;;;;;;;2.15;1.10;;;11.30;71.70;;;;;;2536528;54;20964;-68
2023/12/12 00:31:15;;;;;;;3.60;1.20;;;11.30;71.80;;;;;;2299017;56;20987;-68
2023/12/12 00:33:42;;;;;;;2.30;0.90;;;11.30;71.90;;;;;;2535963;54;20963;-68
2023/12/12 00:36:08;;;;;;;2.03;0.75;;;11.30;72.00;;;;;;2536381;54;21516;-68
2023/12/12 00:38:34;;;;;;;1.80;0.77;;;11.30;72.10;;;;;;2536100;54;21366;-68
2023/12/12 00:41:02;;;;;;;2.25;0.80;;;11.30;72.20;;;;;;2299019;56;21015;-68
2023/12/12 00:43:29;;;;;;;3.37;1.20;;;11.20;72.10;;;;;;2518904;54;21073;-68
2023/12/12 00:45:58;;;;;;;2.10;0.90;;;11.20;72.20;;;;;;2487270;55;20988;-68
2023/12/12 00:48:24;;;;;;;3.83;1.00;;;11.20;72.20;;;;;;2290629;56;20959;-67
2023/12/12 00:50:50;;;;;;;1.85;0.70;;;11.20;72.40;;;;;;2299952;55;21028;-69
2023/12/12 00:53:16;;;;;;;2.08;0.73;;;11.20;72.50;;;;;;2299478;55;21057;-68
2023/12/12 00:55:43;;;;;;;2.17;0.70;;;11.20;72.60;;;;;;2536084;54;21849;-68
2023/12/12 00:58:09;;;;;;;1.83;0.60;;;11.20;72.60;;;;;;2298875;55;20999;-68
2023/12/12 01:00:36;;;;;;;1.45;0.60;;;11.20;72.60;;;;;;2535904;54;20951;-68
2023/12/12 01:03:03;;;;;;;1.55;0.70;;;11.20;72.70;;;;;;2299650;55;20968;-68
2023/12/12 01:05:29;;;;;;;2.22;0.75;;;11.20;72.70;;;;;;2297283;55;20976;-68
2023/12/12 01:07:56;;;;;;;1.95;0.65;;;11.20;72.80;;;;;;2533520;54;20947;-68
2023/12/12 01:10:23;;;;;;;1.87;0.70;;;11.20;72.80;;;;;;2299152;56;20992;-68
2023/12/12 01:12:49;;;;;;;2.95;0.80;;;11.20;72.90;;;;;;2520705;54;21027;-69
2023/12/12 01:15:15;;;;;;;2.35;0.70;;;11.20;72.90;;;;;;2521029;54;21021;-68
2023/12/12 01:17:46;;;;;;;3.83;0.80;;;11.20;73.00;;;;;;2532630;54;20972;-68
2023/12/12 01:20:13;;;;;;;2.28;0.70;;;11.20;73.10;;;;;;2536146;54;20947;-68
2023/12/12 01:22:39;;;;;;;1.75;0.60;;;11.20;73.10;;;;;;2298728;56;21011;-68
2023/12/12 01:25:09;;;;;;;1.35;0.50;;;11.20;73.20;;;;;;2531251;54;21250;-68
2023/12/12 01:27:36;;;;;;;1.87;0.65;;;11.20;73.20;;;;;;2289719;55;20964;-68
2023/12/12 01:30:02;;;;;;;2.03;0.47;;;11.20;73.20;;;;;;2521953;54;21257;-68
2023/12/12 01:32:31;;;;;;;1.37;0.60;;;11.30;73.30;;;;;;2265231;56;21832;-68
2023/12/12 01:34:57;;;;;;;1.73;0.60;;;11.30;73.30;;;;;;2247603;56;21006;-68
2023/12/12 01:37:24;;;;;;;1.92;0.60;;;11.30;73.30;;;;;;2486504;55;20974;-68
2023/12/12 01:39:50;;;;;;;2.10;0.80;;;11.30;73.20;;;;;;2500223;55;20952;-68
2023/12/12 01:42:19;;;;;;;2.80;1.00;;;11.30;73.30;;;;;;2494350;54;20933;-68
2023/12/12 01:44:45;;;;;;;2.80;0.88;;;11.30;73.10;;;;;;2488043;55;20970;-68
2023/12/12 01:47:12;;;;;;;2.03;0.98;;;11.30;73.10;;;;;;2259404;55;21010;-68
2023/12/12 01:49:38;;;;;;;2.00;0.77;;;11.30;73.10;;;;;;2260027;56;21363;-68
2023/12/12 01:52:05;;;;;;;2.45;0.88;;;11.30;73.10;;;;;;2260020;56;20951;-67
2023/12/12 01:54:31;;;;;;;3.72;1.00;;;11.30;73.10;;;;;;2493775;55;21484;-68
2023/12/12 01:56:59;;;;;;;3.03;0.93;;;11.30;73.10;;;;;;2488047;55;21246;-68
2023/12/12 01:59:26;;;;;;;3.12;1.15;;;11.30;73.10;;;;;;2297626;55;20957;-69
2023/12/12 02:01:53;;;;;;;2.75;0.95;;;11.30;73.10;;;;;;2535272;54;21049;-68
2023/12/12 02:04:19;;;;;;;1.98;0.95;;;11.10;72.90;;;;;;2534871;54;20955;-68
2023/12/12 02:06:45;;;;;;;2.00;0.80;;;11.30;73.10;;;;;;2535487;54;21027;-68
2023/12/12 02:09:12;;;;;;;2.92;0.98;;;11.30;73.10;;;;;;2535758;54;20936;-68
2023/12/12 02:11:41;;;;;;;1.58;0.70;;;11.20;73.00;;;;;;2535627;54;21031;-68
2023/12/12 02:14:09;;;;;;;2.83;0.88;;;11.30;73.00;;;;;;2298772;55;21003;-68
2023/12/12 02:16:35;;;;;;;2.28;0.80;;;11.30;73.10;;;;;;2534731;54;20983;-68
2023/12/12 02:19:02;;;;;;;2.72;1.15;;;11.30;73.10;;;;;;2260426;56;21344;-68
2023/12/12 02:21:28;;;;;;;2.10;0.75;;;11.30;73.10;;;;;;2488337;54;21366;-68
2023/12/12 02:23:54;;;;;;;3.33;1.30;;;11.30;73.00;;;;;;2260742;56;22154;-68
2023/12/12 02:26:21;;;;;;;3.08;1.30;;;11.30;73.00;;;;;;2479529;55;21775;-68
2023/12/12 02:28:48;;;;;;;4.32;1.30;;;11.30;73.10;;;;;;2513376;54;20950;-68
2023/12/12 02:31:16;;;;;;;2.83;1.35;;;11.30;73.10;;;;;;2521826;54;21053;-68
2023/12/12 02:33:42;;;;;;;2.50;0.98;;;11.20;73.10;;;;;;2259720;56;20957;-68
2023/12/12 02:36:09;;;;;;;3.80;1.77;;;11.30;73.30;;;;;;2505395;54;20987;-68
2023/12/12 02:38:35;;;;;;;3.33;1.50;;;11.30;73.40;;;;;;2505782;54;21494;-69
2023/12/12 02:41:04;;;;;;;3.50;1.35;;;11.30;73.40;;;;;;2289907;56;20905;-68
2023/12/12 02:43:33;;;;;;;4.00;2.00;;;11.30;73.50;;;;;;2524320;54;20977;-68
2023/12/12 02:45:59;;;;;;;4.75;1.83;;;11.30;73.50;;;;;;2271923;55;20936;-68
2023/12/12 02:48:26;;;;;;;3.72;1.45;;;11.30;73.60;;;;;;2279071;56;21056;-69
2023/12/12 02:50:53;;;;;;;3.92;1.62;;;11.30;73.60;;;;;;2524652;54;20957;-68
2023/12/12 02:53:19;;;;;;;5.25;2.25;;;11.30;73.70;;;;;;2525215;54;21352;-68
2023/12/12 02:55:45;;;;;;;3.97;1.83;;;11.40;73.80;;;;;;2274804;56;20980;-68
2023/12/12 02:58:12;;;;;;;4.50;2.15;;;11.40;74.60;;;;;;2506900;54;20937;-69
2023/12/12 03:00:38;;;;;;;4.65;2.15;;;11.40;73.90;;;;;;2524843;54;20910;-68
2023/12/12 03:03:05;;;;;;;4.40;1.90;;;11.40;73.90;;;;;;2290135;56;21622;-68
2023/12/12 03:05:31;;;;;;;3.25;1.50;;;11.50;74.10;;;;;;2289784;56;20938;-68
2023/12/12 03:07:57;;;;;;;4.30;1.85;;;11.50;74.20;;;;;;2289844;56;21446;-69
2023/12/12 03:10:27;;;;;;;4.45;1.52;;;11.50;74.20;;;;;;2290150;56;21002;-69
2023/12/12 03:12:53;;;;;;;4.70;1.75;;;11.50;74.30;;;;;;2290102;56;20937;-68
2023/12/12 03:15:22;;;;;;;3.92;1.67;;;11.50;74.30;;;;;;2493091;54;21059;-68
2023/12/12 03:17:48;;;;;;;3.55;1.20;;;11.60;74.40;;;;;;2285184;56;21833;-68
2023/12/12 03:20:16;;;;;;;2.15;0.90;;;11.60;74.50;;;;;;2290064;56;21260;-69
2023/12/12 03:22:43;;;;;;;2.22;0.90;;;11.60;74.80;;;;;;2494029;54;20943;-69
2023/12/12 03:25:09;;;;;;;2.87;0.88;;;11.70;75.00;;;;;;2283014;56;20950;-68
2023/12/12 03:27:35;;;;;;;3.28;1.00;;;11.70;75.10;;;;;;2497060;54;20947;-68
2023/12/12 03:30:02;;;;;;;2.00;0.85;;;11.80;75.30;;;;;;2280353;56;20906;-68
2023/12/12 03:32:29;;;;;;;2.95;1.25;;;11.80;75.30;;;;;;2524949;54;21000;-68
2023/12/12 03:34:55;;;;;;;3.05;1.05;;;11.80;75.30;;;;;;2289667;56;21089;-68
2023/12/12 03:37:23;;;;;;;1.50;0.70;;;11.90;75.40;;;;;;2281533;56;21109;-68
2023/12/12 03:39:49;;;;;;;2.35;0.95;;;11.90;75.30;;;;;;2479075;54;20962;-68
2023/12/12 03:42:15;;;;;;;1.80;0.70;;;12.00;75.40;;;;;;2290285;56;21022;-68
2023/12/12 03:44:41;;;;;;;1.65;0.80;;;12.00;75.40;;;;;;2289977;56;21021;-68
2023/12/12 03:47:08;;;;;;;1.92;0.93;;;12.10;75.50;;;;;;2523867;54;20945;-68
2023/12/12 03:49:34;;;;;;;1.95;0.80;;;12.10;75.40;;;;;;2525480;54;20910;-69
2023/12/12 03:52:01;;;;;;;2.08;0.98;;;12.10;75.40;;;;;;2290275;56;20982;-69
2023/12/12 03:54:30;;;;;;;1.80;0.65;;;12.20;75.50;;;;;;2289707;56;20989;-68
2023/12/12 03:56:56;;;;;;;2.20;0.90;;;12.20;75.50;;;;;;2523232;54;21432;-69
2023/12/12 03:59:23;;;;;;;2.53;0.90;;;12.30;75.50;;;;;;2525030;54;21017;-69
2023/12/12 04:01:49;;;;;;;2.65;0.80;;;12.30;75.40;;;;;;2288539;56;21776;-69
2023/12/12 04:04:19;;;;;;;1.27;0.60;;;12.30;75.50;;;;;;2289902;56;20978;-68
2023/12/12 04:06:47;;;;;;;2.53;0.70;;;12.40;75.70;;;;;;2281182;56;20948;-69
2023/12/12 04:09:13;;;;;;;1.27;0.52;;;12.40;75.90;;;;;;2524960;54;20921;-68
2023/12/12 04:11:39;;;;;;;1.12;0.50;;;12.50;76.10;;;;;;2289891;56;21613;-69
2023/12/12 04:14:06;;;;;;;1.65;0.55;;;12.50;76.20;;;;;;2289817;55;20909;-69
2023/12/12 04:16:32;;;;;;;2.12;0.50;;;12.60;76.40;;;;;;2524862;54;20929;-69
2023/12/12 04:18:59;;;;;;;1.40;0.47;;;12.60;76.40;;;;;;2524805;54;20945;-68
2023/12/12 04:21:27;;;;;;;1.52;0.60;;;12.70;76.50;;;;;;2289697;56;20934;-68
2023/12/12 04:23:55;;;;;;;1.02;0.40;;;12.70;76.50;;;;;;2523573;54;20958;-69
2023/12/12 04:26:21;;;;;;;1.40;0.68;;;12.80;76.60;;;;;;2289709;56;21054;-69
2023/12/12 04:28:47;;;;;;;1.42;0.60;;;12.80;76.60;;;;;;2289576;56;20985;-69
2023/12/12 04:31:16;;;;;;;1.15;0.47;;;12.90;76.70;;;;;;2524765;54;21478;-68
2023/12/12 04:33:43;;;;;;;1.25;0.40;;;13.00;76.70;;;;;;2261279;55;21110;-69
2023/12/12 04:36:13;;;;;;;1.67;0.50;;;13.00;76.80;;;;;;2524581;54;20937;-69
2023/12/12 04:38:39;;;;;;;1.23;0.50;;;13.00;76.70;;;;;;2259360;56;21467;-69
2023/12/12 04:41:06;;;;;;;1.62;0.50;;;13.10;76.80;;;;;;2481494;55;21034;-73
2023/12/12 04:43:32;;;;;;;1.35;0.52;;;13.20;76.90;;;;;;2484280;54;20960;-69
2023/12/12 04:45:58;;;;;;;2.78;0.60;;;13.20;76.80;;;;;;2493841;55;21031;-69
2023/12/12 04:48:25;;;;;;;1.40;0.40;;;13.30;76.90;;;;;;2494352;54;20967;-69
2023/12/12 04:50:53;;;;;;;1.40;0.50;;;13.30;76.80;;;;;;2451250;55;21070;-72
2023/12/12 04:53:20;;;;;;;4.37;0.80;;;13.30;76.80;;;;;;2445735;55;20999;-70
2023/12/12 04:55:46;;;;;;;2.30;0.80;;;13.40;76.80;;;;;;2493043;55;21018;-69
2023/12/12 04:58:12;;;;;;;3.95;1.95;;;13.40;76.50;;;;;;2487791;55;21476;-69
2023/12/12 05:00:39;;;;;;;6.22;4.57;;;13.50;76.40;;;;;;2263229;56;21248;-69
2023/12/12 05:03:12;;;;;;;4.37;2.47;;;13.50;76.20;;;;;;2265199;56;21558;-69
2023/12/12 05:05:39;;;;;;;3.53;2.12;;;13.60;76.20;;;;;;2476293;55;20983;-69
2023/12/12 05:08:06;;;;;;;3.58;1.70;;;13.60;76.10;;;;;;2254368;55;20994;-69
2023/12/12 05:10:32;;;;;;;3.22;1.85;;;13.60;76.00;;;;;;2488017;54;21302;-70
2023/12/12 05:12:59;;;;;;;2.85;1.50;;;13.60;75.70;;;;;;2260026;56;21298;-70
2023/12/12 05:15:27;;;;;;;2.00;0.90;;;13.60;75.50;;;;;;2259761;56;21558;-68
2023/12/12 05:17:53;;;;;;;1.92;0.93;;;13.60;75.40;;;;;;2258189;56;20995;-71
2023/12/12 05:20:20;;;;;;;2.10;1.05;;;13.70;75.50;;;;;;2249196;56;21002;-68
2023/12/12 05:22:46;;;;;;;2.03;0.85;;;13.70;75.50;;;;;;2488478;54;20950;-69
2023/12/12 05:25:12;;;;;;;2.20;0.80;;;13.70;75.60;;;;;;2265211;56;21307;-70
2023/12/12 05:27:39;;;;;;;1.50;0.70;;;13.70;75.60;;;;;;2278021;56;21230;-69
2023/12/12 05:30:09;;;;;;;2.05;0.70;;;13.70;75.70;;;;;;2270934;56;20937;-69
2023/12/12 05:32:35;;;;;;;1.62;0.70;;;13.70;75.50;;;;;;2290559;56;21013;-69
2023/12/12 05:35:02;;;;;;;1.80;0.80;;;13.70;75.40;;;;;;2510475;54;21031;-69
2023/12/12 05:37:28;;;;;;;2.12;0.93;;;13.70;75.40;;;;;;2270080;56;20953;-69
2023/12/12 05:39:55;;;;;;;2.00;0.80;;;13.70;75.40;;;;;;2289603;56;20939;-69
2023/12/12 05:42:21;;;;;;;1.95;0.82;;;13.70;75.40;;;;;;2289388;56;21210;-69
2023/12/12 05:44:48;;;;;;;3.70;1.12;;;13.80;75.50;;;;;;2289048;56;21592;-69
2023/12/12 05:47:14;;;;;;;1.95;0.90;;;13.80;75.50;;;;;;2484733;54;20957;-69
2023/12/12 05:49:41;;;;;;;3.05;1.20;;;13.80;75.50;;;;;;2523696;54;20992;-69
2023/12/12 05:52:08;;;;;;;3.40;1.30;;;13.80;75.50;;;;;;2290046;56;21063;-71
2023/12/12 05:54:34;;;;;;;4.18;1.45;;;13.80;75.50;;;;;;2525608;54;20973;-69
2023/12/12 05:57:01;;;;;;;5.15;1.80;;;13.80;75.60;;;;;;2290491;56;20930;-71
2023/12/12 05:59:27;;;;;;;5.45;2.33;;;13.80;75.60;;;;;;2525169;54;20978;-72
2023/12/12 06:01:53;;;;;;;6.53;2.25;;;13.80;75.60;;;;;;2525230;54;21495;-70
2023/12/12 06:04:21;;;;;;;7.37;2.60;;;13.90;75.60;;;;;;2515043;54;21015;-70
2023/12/12 06:06:48;;;;;;;5.75;2.30;;;13.90;75.60;;;;;;2266748;55;20978;-74
2023/12/12 06:09:16;;;;;;;5.80;2.37;;;13.90;75.60;;;;;;2290226;56;20925;-70
2023/12/12 06:11:43;;;;;;;5.35;2.50;;;13.90;75.50;;;;;;2525385;54;23151;-70
2023/12/12 06:14:09;;;;;;;5.07;2.15;;;13.90;75.40;;;;;;2290508;56;20941;-71
2023/12/12 06:16:37;;;;;;;5.93;2.62;;;13.90;75.40;;;;;;2525649;54;20934;-68
2023/12/12 06:19:04;;;;;;;5.57;2.65;;;13.90;75.40;;;;;;2525148;54;20934;-73
2023/12/12 06:21:33;;;;;;;6.78;3.60;;;13.90;75.20;;;;;;2290624;56;21360;-71
2023/12/12 06:24:01;;;;;;;7.57;3.08;;;14.00;75.20;;;;;;2290012;56;21073;-68
2023/12/12 06:26:28;;;;;;;5.37;3.03;;;14.00;75.20;;;;;;2289922;56;20925;-71
2023/12/12 06:28:55;;;;;;;4.53;2.50;;;14.00;75.30;;;;;;2289988;56;20954;-71
2023/12/12 06:31:22;;;;;;;6.45;3.20;;;13.90;75.10;;;;;;2289602;56;20934;-70
2023/12/12 06:33:49;;;;;;;5.85;3.35;;;14.00;75.20;;;;;;2290690;56;20921;-72
2023/12/12 06:36:19;;;;;;;6.47;4.12;;;14.00;75.30;;;;;;2478951;54;20958;-70
2023/12/12 06:38:45;;;;;;;7.75;4.72;;;14.00;75.20;;;;;;2525673;54;20954;-72
2023/12/12 06:41:12;;;;;;;7.95;4.53;;;14.00;75.20;;;;;;2524864;54;22237;-70
2023/12/12 06:43:38;;;;;;;5.87;3.37;;;14.00;75.20;;;;;;2525271;54;20934;-70
2023/12/12 06:46:05;;;;;;;6.28;3.87;;;14.00;75.20;;;;;;2525077;54;20990;-75
2023/12/12 06:48:32;;;;;;;6.30;3.30;;;14.00;75.20;;;;;;2525817;54;21748;-70
2023/12/12 06:50:58;;;;;;;5.37;3.10;;;14.00;75.20;;;;;;2289713;56;21021;-70
2023/12/12 06:53:25;;;;;;;5.95;4.05;;;14.00;75.20;;;;;;2290155;56;20906;-70
2023/12/12 06:55:51;;;;;;;5.62;3.55;;;14.00;75.20;;;;;;2290442;56;20981;-70
2023/12/12 06:58:18;;;;;;;7.70;4.35;;;14.00;75.20;;;;;;2488039;55;21523;-71
2023/12/12 07:00:45;;;;;;;7.70;4.28;;;14.00;75.20;;;;;;2248612;56;20951;-71
2023/12/12 07:03:11;;;;;;;7.43;4.12;;;14.00;75.10;;;;;;2488776;55;20978;-70
2023/12/12 07:05:37;;;;;;;7.70;4.03;;;14.00;75.10;;;;;;2488770;54;21058;-71
2023/12/12 07:08:08;;;;;;;6.50;4.07;;;14.00;75.20;;;;;;2482952;54;21804;-71
2023/12/12 07:10:34;;;;;;;6.18;3.87;;;14.00;75.10;;;;;;2251298;56;21014;-71
2023/12/12 07:13:00;;;;;;;17.00;9.13;;;14.10;75.10;;;;;;2260363;56;21093;-70
2023/12/12 07:15:27;;;;;;;14.80;7.82;;;14.10;75.20;;;;;;2263244;56;20963;-71
2023/12/12 07:17:56;;;;;;;14.15;7.55;;;14.10;75.20;;;;;;2449930;55;21002;-70
2023/12/12 07:20:23;;;;;;;14.82;7.93;;;14.10;75.20;;;;;;2247791;56;20947;-71
2023/12/12 07:22:49;;;;;;;11.20;6.72;;;14.10;75.20;;;;;;2260325;55;21302;-70
2023/12/12 07:25:16;;;;;;;12.65;6.80;;;14.10;75.20;;;;;;2488827;55;20999;-71
2023/12/12 07:27:42;;;;;;;10.70;5.90;;;14.10;75.50;;;;;;2266304;56;21840;-73
2023/12/12 07:30:10;;;;;;;6.82;4.00;;;14.10;75.20;;;;;;2248406;56;20983;-71
2023/12/12 07:32:36;;;;;;;6.37;3.58;;;14.10;75.20;;;;;;2263264;55;20972;-70
2023/12/12 07:35:04;;;;;;;6.82;3.62;;;14.10;75.20;;;;;;2290977;55;20996;-71
2023/12/12 07:37:30;;;;;;;5.07;2.60;;;14.10;75.10;;;;;;2260487;55;20981;-72
2023/12/12 07:39:57;;;;;;;6.45;2.97;;;14.10;75.20;;;;;;2483826;54;21296;-70
2023/12/12 07:42:23;;;;;;;5.93;2.95;;;14.10;75.20;;;;;;2224878;56;20935;-71
2023/12/12 07:44:50;;;;;;;6.53;3.12;;;14.10;75.20;;;;;;2488998;55;20946;-71
2023/12/12 07:47:19;;;;;;;5.78;2.80;;;14.10;75.10;;;;;;2260314;56;20981;-72
2023/12/12 07:49:47;;;;;;;5.32;2.90;;;14.10;75.10;;;;;;2477310;55;21091;-70
2023/12/12 07:52:14;;;;;;;5.68;3.30;;;14.20;75.20;;;;;;2483413;55;21405;-71
2023/12/12 07:54:42;;;;;;;6.47;3.30;;;14.20;75.30;;;;;;2489134;55;20965;-71
2023/12/12 07:57:09;;;;;;;6.78;3.85;;;14.20;75.30;;;;;;2260474;55;21037;-71
2023/12/12 07:59:36;;;;;;;11.27;4.30;;;14.20;75.20;;;;;;2488561;55;20947;-71
2023/12/12 08:02:02;;;;;;;11.38;5.32;;;14.20;75.20;;;;;;2452567;55;20973;-71
2023/12/12 08:04:32;;;;;;;13.57;6.00;;;14.20;75.20;;;;;;2497411;54;21047;-72
2023/12/12 08:06:59;;;;;;;15.45;6.85;;;14.20;75.10;;;;;;2457283;55;21073;-72
2023/12/12 08:09:34;;;;;;;15.98;6.78;;;14.20;75.20;;;;;;2481845;55;21877;-71
2023/12/12 08:12:01;;;;;;;10.05;4.78;;;14.20;75.00;;;;;;2487822;55;20990;-72
2023/12/12 08:14:28;;;;;;;11.05;4.95;;;14.20;75.20;;;;;;2501539;55;21621;-72
2023/12/12 08:16:54;;;;;;;13.65;5.30;;;14.20;75.30;;;;;;2488498;55;20966;-72
2023/12/12 08:19:21;;;;;;;12.02;5.15;;;14.20;75.30;;;;;;2493994;55;20954;-72
2023/12/12 08:21:48;;;;;;;11.20;5.93;;;14.20;75.30;;;;;;2260964;55;21061;-72
2023/12/12 08:24:15;;;;;;;8.82;5.05;;;14.20;75.30;;;;;;2494855;55;20994;-72
2023/12/12 08:26:42;;;;;;;10.10;5.30;;;14.20;75.40;;;;;;2489005;55;21040;-75
2023/12/12 08:29:09;;;;;;;5.85;3.20;;;14.20;75.40;;;;;;2494527;54;21041;-72
2023/12/12 08:31:37;;;;;;;3.87;2.12;;;14.20;75.60;;;;;;2501924;54;20943;-75
2023/12/12 08:34:03;;;;;;;4.45;1.80;;;14.30;75.90;;;;;;2299113;56;20972;-73
2023/12/12 08:36:30;;;;;;;3.65;1.73;;;14.30;76.20;;;;;;2536012;54;21352;-71
2023/12/12 08:38:58;;;;;;;4.70;2.30;;;14.30;76.40;;;;;;2299862;56;21547;-72
2023/12/12 08:41:27;;;;;;;5.68;2.70;;;14.30;76.60;;;;;;2488661;55;20951;-73
2023/12/12 08:43:54;;;;;;;4.55;2.37;;;14.40;76.80;;;;;;2488419;55;21062;-73
2023/12/12 08:46:26;;;;;;;3.78;1.70;;;14.40;76.80;;;;;;2260098;56;20966;-72
2023/12/12 08:48:56;;;;;;;3.60;1.87;;;14.40;76.80;;;;;;2488656;55;20958;-74
2023/12/12 08:51:23;;;;;;;4.40;2.30;;;14.50;76.90;;;;;;2265444;56;21425;-72
2023/12/12 08:53:49;;;;;;;3.97;2.15;;;14.50;76.80;;;;;;2260292;55;21014;-76
2023/12/12 08:56:16;;;;;;;5.07;2.78;;;14.60;77.00;;;;;;2265359;56;21746;-73
2023/12/12 08:58:44;;;;;;;4.95;2.40;;;14.60;77.60;;;;;;2260223;55;20990;-73
2023/12/12 09:01:13;;;;;;;3.67;1.90;;;14.60;76.80;;;;;;2232527;56;20993;-73
2023/12/12 09:03:39;;;;;;;2.72;1.30;;;14.60;76.90;;;;;;2482614;55;21355;-73
2023/12/12 09:06:07;;;;;;;2.75;1.20;;;14.70;76.90;;;;;;2474499;55;20987;-73
2023/12/12 09:08:34;;;;;;;2.37;1.00;;;14.60;76.80;;;;;;2472500;54;21394;-73
2023/12/12 09:11:00;;;;;;;2.37;0.90;;;14.70;76.90;;;;;;2491440;54;21022;-73
2023/12/12 09:13:27;;;;;;;2.10;0.70;;;14.70;76.80;;;;;;2489242;55;21010;-72
2023/12/12 09:15:54;;;;;;;1.70;0.60;;;14.70;76.80;;;;;;2495438;55;21319;-72
2023/12/12 09:18:21;;;;;;;1.33;0.50;;;14.80;76.90;;;;;;2493128;55;21004;-72
2023/12/12 09:20:48;;;;;;;3.20;1.17;;;14.80;77.00;;;;;;2490508;55;21038;-72
2023/12/12 09:23:15;;;;;;;1.83;0.70;;;14.80;76.90;;;;;;2491605;55;21038;-73
2023/12/12 09:25:42;;;;;;;2.08;0.80;;;14.80;77.00;;;;;;2491551;55;21491;-72
2023/12/12 09:28:08;;;;;;;3.95;1.15;;;14.90;77.10;;;;;;2488400;55;20967;-72
2023/12/12 09:30:35;;;;;;;3.90;1.50;;;14.90;77.10;;;;;;2476461;54;21031;-71
2023/12/12 09:33:01;;;;;;;5.10;1.80;;;14.90;77.10;;;;;;2246978;56;20952;-71
2023/12/12 09:35:27;;;;;;;4.87;1.85;;;14.90;77.20;;;;;;2460581;55;21913;-72
2023/12/12 09:37:54;;;;;;;3.22;1.27;;;14.90;77.20;;;;;;2281270;56;20966;-72
2023/12/12 09:40:23;;;;;;;2.55;1.08;;;14.90;77.20;;;;;;2525140;54;20941;-72
2023/12/12 09:42:50;;;;;;;2.05;0.90;;;15.00;77.40;;;;;;2290391;56;21237;-71
2023/12/12 09:45:16;;;;;;;2.30;0.90;;;15.00;77.50;;;;;;2524979;54;20937;-74
2023/12/12 09:47:44;;;;;;;1.73;0.70;;;15.00;77.50;;;;;;2525710;54;20966;-71
2023/12/12 09:50:12;;;;;;;2.15;0.77;;;15.10;77.50;;;;;;2289925;56;20981;-71
2023/12/12 09:52:41;;;;;;;2.10;0.62;;;15.10;77.60;;;;;;2486135;54;21521;-71
2023/12/12 09:55:08;;;;;;;1.10;0.45;;;15.20;77.60;;;;;;2284062;56;20934;-73
2023/12/12 09:57:34;;;;;;;1.20;0.60;;;15.20;77.60;;;;;;2291446;56;20981;-73
2023/12/12 10:00:01;;;;;;;0.73;0.43;;;15.20;77.60;;;;;;2525204;54;20965;-74
2023/12/12 10:02:34;;;;;;;1.35;0.65;;;15.30;77.70;;;;;;2290324;56;20966;-73
2023/12/12 10:05:04;;;;;;;1.80;0.80;;;15.30;77.80;;;;;;2495371;54;21025;-72
2023/12/12 10:07:33;;;;;;;2.12;0.80;;;15.40;77.80;;;;;;2252627;56;21052;-71
2023/12/12 10:10:01;;;;;;;1.85;0.77;;;15.40;77.80;;;;;;2262552;56;20990;-71
2023/12/12 10:12:27;;;;;;;4.12;1.67;;;15.40;77.80;;;;;;2259854;55;21298;-71
2023/12/12 10:14:55;;;;;;;3.03;1.27;;;15.40;77.70;;;;;;2494264;54;21315;-71
2023/12/12 10:17:24;;;;;;;3.42;1.48;;;15.50;77.70;;;;;;2259678;55;21049;-70
2023/12/12 10:20:04;;;;;;;3.10;1.23;;;15.50;77.80;;;;;;2495190;54;20994;-71
2023/12/12 10:22:40;;;;;;;2.90;1.40;;;15.60;77.60;;;;;;2504821;54;20928;-74
2023/12/12 10:25:15;;;;;;;2.90;1.30;;;15.60;77.80;;;;;;2474549;55;20963;-71
2023/12/12 10:27:44;;;;;;;1.65;0.70;;;15.60;77.60;;;;;;2494012;54;20976;-72
2023/12/12 10:30:13;;;;;;;1.85;0.62;;;15.60;77.60;;;;;;2499801;54;21066;-72
2023/12/12 10:32:43;;;;;;;1.42;0.60;;;15.70;77.50;;;;;;2488518;55;20955;-71
2023/12/12 10:35:12;;;;;;;1.50;0.60;;;15.70;77.40;;;;;;2269371;55;21118;-70
2023/12/12 10:37:38;;;;;;;1.12;0.52;;;15.70;77.40;;;;;;2292107;55;21065;-70
2023/12/12 10:40:28;;;;;;;1.23;0.50;;;15.70;77.30;;;;;;2505327;54;20927;-71
2023/12/12 10:42:55;;;;;;;0.80;0.43;;;15.80;76.90;;;;;;2536582;54;21299;-71
2023/12/12 10:45:21;;;;;;;1.40;0.60;;;15.80;77.30;;;;;;2535953;54;21408;-73
2023/12/12 10:47:50;;;;;;;0.90;0.43;;;15.80;77.30;;;;;;2536772;54;20956;-72
2023/12/12 10:50:17;;;;;;;0.85;0.40;;;15.90;77.70;;;;;;2299081;56;20960;-71
2023/12/12 10:52:44;;;;;;;0.98;0.50;;;15.90;77.30;;;;;;2535467;54;20983;-74
2023/12/12 10:55:14;;;;;;;0.88;0.47;;;15.90;77.30;;;;;;2535140;54;20960;-71
2023/12/12 10:57:44;;;;;;;0.62;0.37;;;15.90;77.10;;;;;;2299650;56;20951;-71
2023/12/12 11:00:14;;;;;;;1.42;0.52;;;15.90;77.00;;;;;;2535774;54;21060;-71
2023/12/12 11:02:44;;;;;;;1.05;0.57;;;15.90;77.00;;;;;;2536767;54;20971;-71
2023/12/12 11:05:13;;;;;;;1.35;0.55;;;16.00;77.10;;;;;;2299313;55;20987;-73
2023/12/12 11:07:41;;;;;;;1.27;0.60;;;16.00;77.10;;;;;;2536562;54;20939;-71
2023/12/12 11:10:15;;;;;;;1.73;0.50;;;16.00;77.00;;;;;;2294862;55;21001;-71
2023/12/12 11:12:48;;;;;;;1.15;0.50;;;16.00;76.80;;;;;;2285648;55;21007;-71
2023/12/12 11:15:14;;;;;;;1.25;0.40;;;16.00;76.90;;;;;;2533851;54;20951;-71
2023/12/12 11:17:41;;;;;;;0.90;0.40;;;16.00;76.80;;;;;;2299851;55;21011;-72
2023/12/12 11:20:15;;;;;;;1.62;0.50;;;16.00;76.80;;;;;;2536238;54;21067;-71
2023/12/12 11:22:42;;;;;;;1.50;0.50;;;16.10;76.80;;;;;;2299616;55;20958;-72
2023/12/12 11:25:20;;;;;;;1.60;0.60;;;16.10;76.90;;;;;;2299323;55;21062;-71
2023/12/12 11:27:50;;;;;;;0.68;0.30;;;16.10;76.80;;;;;;2537067;54;20959;-71
2023/12/12 11:30:23;;;;;;;1.15;0.50;;;16.10;76.90;;;;;;2525685;54;21042;-71
2023/12/12 11:32:51;;;;;;;0.98;0.43;;;16.10;76.90;;;;;;2529980;54;21591;-72
2023/12/12 11:35:33;;;;;;;1.15;0.50;;;16.10;77.00;;;;;;2299438;56;21379;-71
2023/12/12 11:38:03;;;;;;;1.15;0.45;;;16.20;76.80;;;;;;2299917;56;20988;-71
2023/12/12 11:40:33;;;;;;;0.77;0.40;;;16.10;77.10;;;;;;2299840;55;21025;-71
2023/12/12 11:43:11;;;;;;;1.15;0.50;;;16.20;77.30;;;;;;2521786;54;21374;-70
2023/12/12 11:45:38;;;;;;;1.48;0.60;;;16.20;77.30;;;;;;2537425;54;21050;-70
2023/12/12 11:48:06;;;;;;;1.17;0.52;;;16.20;77.30;;;;;;2537157;54;21004;-70
2023/12/12 11:50:33;;;;;;;1.83;0.70;;;16.20;77.30;;;;;;2294630;55;20983;-70
2023/12/12 11:53:01;;;;;;;1.73;0.55;;;16.20;77.40;;;;;;2296884;55;21307;-71
2023/12/12 11:55:29;;;;;;;1.02;0.40;;;16.30;77.50;;;;;;2300290;56;21329;-71
2023/12/12 11:58:05;;;;;;;1.23;0.50;;;16.30;77.50;;;;;;2299831;56;20960;-70
2023/12/12 12:00:36;;;;;;;1.00;0.50;;;16.30;77.20;;;;;;2299538;55;21200;-70
2023/12/12 12:03:03;;;;;;;3.28;0.47;;;16.30;77.50;;;;;;2536734;54;20956;-72
2023/12/12 12:05:29;;;;;;;0.68;0.30;;;16.40;78.20;;;;;;2536278;54;20952;-71
2023/12/12 12:07:56;;;;;;;0.82;0.32;;;16.40;77.50;;;;;;2536451;54;20995;-70
2023/12/12 12:10:25;;;;;;;1.75;0.40;;;16.40;77.50;;;;;;2301353;56;21489;-71
2023/12/12 12:12:58;;;;;;;1.02;0.40;;;16.40;77.50;;;;;;2520679;54;20971;-71
2023/12/12 12:15:24;;;;;;;0.90;0.50;;;16.40;77.40;;;;;;2536227;54;21441;-71
2023/12/12 12:17:51;;;;;;;1.10;0.50;;;16.50;77.60;;;;;;2299559;55;20959;-71
2023/12/12 12:20:18;;;;;;;1.17;0.47;;;16.50;77.50;;;;;;2299542;56;20967;-70
2023/12/12 12:22:46;;;;;;;1.10;0.50;;;16.50;77.50;;;;;;2537005;54;21028;-72
2023/12/12 12:25:12;;;;;;;0.65;0.32;;;16.50;77.40;;;;;;2535727;54;20999;-70
2023/12/12 12:27:53;;;;;;;3.47;0.40;;;16.50;77.40;;;;;;2536929;54;20963;-70
2023/12/12 12:30:22;;;;;;;1.15;0.43;;;16.60;77.10;;;;;;2525763;54;20994;-71
2023/12/12 12:33:02;;;;;;;0.95;0.37;;;16.60;77.40;;;;;;2277343;55;20955;-72
2023/12/12 12:35:29;;;;;;;1.10;0.40;;;16.60;77.10;;;;;;2499482;54;20973;-72
2023/12/12 12:37:56;;;;;;;1.42;0.60;;;16.60;77.50;;;;;;2523209;54;21039;-71
2023/12/12 12:40:37;;;;;;;1.35;0.40;;;16.70;77.50;;;;;;2298792;56;21056;-72
2023/12/12 12:43:34;;;;;;;0.95;0.32;;;16.70;77.10;;;;;;2298335;55;21754;-72
2023/12/12 12:46:06;;;;;;;2.37;0.70;;;16.70;76.70;;;;;;2299514;56;21034;-71
2023/12/12 12:48:33;;;;;;;2.15;0.60;;;16.70;77.20;;;;;;2537259;54;21008;-71